sensor_id;sensor_type;location;lat;lon;timestamp;pressure;altitude;pressure_sealevel;temperature;humidity
3206;BME280;1615;53.602;11.418;2023-03-20T00:00:36;101188.97;;;9.91;100.00
3206;BME280;1615;53.602;11.418;2023-03-20T00:03:03;101196.06;;;9.97;100.00
3206;BME280;1615;53.602;11.418;2023-03-20T00:05:29;101188.66;;;9.97;100.00
3206;BME280;1615;53.602;11.418;2023-03-20T00:07:56;101192.78;;;10.00;100.00
3206;BME280;1615;53.602;11.418;2023-03-20T00:10:26;101184.03;;;9.98;100.00
3206;BME280;1615;53.602;11.418;2023-03-20T00:12:54;101205.06;;;10.17;100.00
3206;BME280;1615;53.602;11.418;2023-03-20T00:15:30;101209.66;;;10.32;100.00
3206;BME280;1615;53.602;11.418;2023-03-20T00:17:56;101171.38;;;10.17;100.00
3206;BME280;1615;53.602;11.418;2023-03-20T00:20:22;101206.97;;;10.22;100.00
3206;BME280;1615;53.602;11.418;2023-03-20T00:22:48;101211.75;;;10.55;100.00
3206;BME280;1615;53.602;11.418;2023-03-20T00:25:19;101213.44;;;10.51;100.00
3206;BME280;1615;53.602;11.418;2023-03-20T00:27:45;101209.81;;;10.55;100.00
3206;BME280;1615;53.602;11.418;2023-03-20T00:30:26;101219.38;;;10.63;100.00
3206;BME280;1615;53.602;11.418;2023-03-20T00:32:54;101220.97;;;10.74;100.00
3206;BME280;1615;53.602;11.418;2023-03-20T00:35:29;101197.44;;;10.63;100.00
3206;BME280;1615;53.602;11.418;2023-03-20T00:37:56;101209.13;;;10.78;100.00
3206;BME280;1615;53.602;11.418;2023-03-20T00:40:28;101188.06;;;10.74;100.00
3206;BME280;1615;53.602;11.418;2023-03-20T00:42:58;101178.47;;;10.71;100.00
3206;BME280;1615;53.602;11.418;2023-03-20T00:45:24;101207.34;;;11.02;100.00
3206;BME280;1615;53.602;11.418;2023-03-20T00:47:50;101206.47;;;11.07;100.00
3206;BME280;1615;53.602;11.418;2023-03-20T00:50:18;101205.88;;;11.15;100.00
3206;BME280;1615;53.602;11.418;2023-03-20T00:52:45;101137.66;;;10.65;100.00
3206;BME280;1615;53.602;11.418;2023-03-20T00:55:11;101202.28;;;11.19;100.00
3206;BME280;1615;53.602;11.418;2023-03-20T00:57:42;101204.19;;;11.19;100.00
3206;BME280;1615;53.602;11.418;2023-03-20T01:03:00;101157.75;;;10.94;100.00
3206;BME280;1615;53.602;11.418;2023-03-20T01:05:27;101142.13;;;10.89;100.00
3206;BME280;1615;53.602;11.418;2023-03-20T01:07:53;101215.03;;;11.34;100.00
3206;BME280;1615;53.602;11.418;2023-03-20T01:10:18;101209.00;;;11.37;100.00
3206;BME280;1615;53.602;11.418;2023-03-20T01:12:45;101211.69;;;11.42;100.00
3206;BME280;1615;53.602;11.418;2023-03-20T01:15:17;101200.13;;;11.45;100.00
3206;BME280;1615;53.602;11.418;2023-03-20T01:17:43;101211.06;;;11.50;100.00
3206;BME280;1615;53.602;11.418;2023-03-20T01:20:21;101106.16;;;10.96;100.00
3206;BME280;1615;53.602;11.418;2023-03-20T01:22:48;101209.38;;;11.54;100.00
3206;BME280;1615;53.602;11.418;2023-03-20T01:25:14;101162.47;;;11.22;100.00
3206;BME280;1615;53.602;11.418;2023-03-20T01:27:42;101092.03;;;10.79;100.00
3206;BME280;1615;53.602;11.418;2023-03-20T01:30:21;101214.28;;;11.57;100.00
3206;BME280;1615;53.602;11.418;2023-03-20T01:32:46;101222.00;;;11.55;100.00
3206;BME280;1615;53.602;11.418;2023-03-20T01:35:17;101159.75;;;11.17;100.00
3206;BME280;1615;53.602;11.418;2023-03-20T01:37:44;101222.59;;;11.52;100.00
3206;BME280;1615;53.602;11.418;2023-03-20T01:40:18;101189.19;;;11.40;100.00
3206;BME280;1615;53.602;11.418;2023-03-20T01:42:48;101223.16;;;11.49;100.00
3206;BME280;1615;53.602;11.418;2023-03-20T01:45:16;101226.47;;;11.46;100.00
3206;BME280;1615;53.602;11.418;2023-03-20T01:47:43;101220.78;;;11.37;100.00
3206;BME280;1615;53.602;11.418;2023-03-20T01:50:21;101221.59;;;11.38;100.00
3206;BME280;1615;53.602;11.418;2023-03-20T01:52:47;101222.13;;;11.40;100.00
3206;BME280;1615;53.602;11.418;2023-03-20T01:55:14;101225.47;;;11.37;100.00
3206;BME280;1615;53.602;11.418;2023-03-20T01:57:39;101209.03;;;11.32;100.00
3206;BME280;1615;53.602;11.418;2023-03-20T02:00:08;101221.28;;;11.44;100.00
3206;BME280;1615;53.602;11.418;2023-03-20T02:02:37;101130.06;;;10.90;100.00
3206;BME280;1615;53.602;11.418;2023-03-20T02:05:07;101207.25;;;11.46;100.00
3206;BME280;1615;53.602;11.418;2023-03-20T02:07:33;101223.09;;;11.54;100.00
3206;BME280;1615;53.602;11.418;2023-03-20T02:10:02;101120.28;;;10.79;100.00
3206;BME280;1615;53.602;11.418;2023-03-20T02:12:29;101232.97;;;11.55;100.00
3206;BME280;1615;53.602;11.418;2023-03-20T02:14:55;101238.47;;;11.55;100.00
3206;BME280;1615;53.602;11.418;2023-03-20T02:17:22;101231.34;;;11.54;100.00
3206;BME280;1615;53.602;11.418;2023-03-20T02:23:22;101231.88;;;11.56;100.00
3206;BME280;1615;53.602;11.418;2023-03-20T02:26:25;101300.31;;;11.47;100.00
3206;BME280;1615;53.602;11.418;2023-03-20T02:29:16;101232.97;;;11.55;100.00
3206;BME280;1615;53.602;11.418;2023-03-20T02:32:06;101229.72;;;11.53;100.00
3206;BME280;1615;53.602;11.418;2023-03-20T02:35:14;101222.59;;;11.52;100.00
3206;BME280;1615;53.602;11.418;2023-03-20T02:46:31;101214.81;;;11.64;100.00
3206;BME280;1615;53.602;11.418;2023-03-20T02:49:09;101144.84;;;11.28;100.00
3206;BME280;1615;53.602;11.418;2023-03-20T02:57:05;101203.13;;;11.77;100.00
3206;BME280;1615;53.602;11.418;2023-03-20T02:59:55;101165.97;;;11.56;100.00
3206;BME280;1615;53.602;11.418;2023-03-20T03:02:33;101140.97;;;11.29;100.00
3206;BME280;1615;53.602;11.418;2023-03-20T03:05:04;101101.78;;;10.95;100.00
3206;BME280;1615;53.602;11.418;2023-03-20T03:07:32;101210.63;;;11.71;100.00
3206;BME280;1615;53.602;11.418;2023-03-20T03:10:01;101210.38;;;11.68;100.00
3206;BME280;1615;53.602;11.418;2023-03-20T03:12:32;101172.38;;;11.46;100.00
3206;BME280;1615;53.602;11.418;2023-03-20T03:15:01;101210.44;;;11.58;100.00
3206;BME280;1615;53.602;11.418;2023-03-20T03:17:31;101204.97;;;11.58;100.00
3206;BME280;1615;53.602;11.418;2023-03-20T03:20:02;101203.41;;;11.47;100.00
3206;BME280;1615;53.602;11.418;2023-03-20T03:22:30;101205.25;;;11.56;100.00
3206;BME280;1615;53.602;11.418;2023-03-20T03:24:56;101200.13;;;11.45;100.00
3206;BME280;1615;53.602;11.418;2023-03-20T03:27:36;101203.94;;;11.49;100.00
3206;BME280;1615;53.602;11.418;2023-03-20T03:30:13;101206.69;;;11.49;100.00
3206;BME280;1615;53.602;11.418;2023-03-20T03:32:47;101206.88;;;11.57;100.00
3206;BME280;1615;53.602;11.418;2023-03-20T03:35:17;101211.59;;;11.52;100.00
3206;BME280;1615;53.602;11.418;2023-03-20T03:38:00;101204.06;;;11.34;100.00
3206;BME280;1615;53.602;11.418;2023-03-20T03:40:43;101196.56;;;11.44;100.00
3206;BME280;1615;53.602;11.418;2023-03-20T03:43:19;101198.47;;;11.44;100.00
3206;BME280;1615;53.602;11.418;2023-03-20T03:45:52;101199.31;;;11.44;100.00
3206;BME280;1615;53.602;11.418;2023-03-20T03:48:27;101216.34;;;11.41;100.00
3206;BME280;1615;53.602;11.418;2023-03-20T03:50:59;101205.13;;;11.38;100.00
3206;BME280;1615;53.602;11.418;2023-03-20T03:53:30;101080.63;;;10.67;100.00
3206;BME280;1615;53.602;11.418;2023-03-20T03:56:05;101201.47;;;11.47;100.00
3206;BME280;1615;53.602;11.418;2023-03-20T03:58:36;101194.03;;;11.53;100.00
3206;BME280;1615;53.602;11.418;2023-03-20T04:01:06;101181.53;;;11.37;100.00
3206;BME280;1615;53.602;11.418;2023-03-20T04:03:38;101214.41;;;11.47;100.00
3206;BME280;1615;53.602;11.418;2023-03-20T04:06:04;101189.03;;;11.55;100.00
3206;BME280;1615;53.602;11.418;2023-03-20T04:08:31;101181.44;;;11.47;100.00
3206;BME280;1615;53.602;11.418;2023-03-20T04:10:57;101184.16;;;11.52;100.00
3206;BME280;1615;53.602;11.418;2023-03-20T04:13:22;101168.94;;;11.36;100.00
3206;BME280;1615;53.602;11.418;2023-03-20T04:15:48;101174.75;;;11.58;100.00
3206;BME280;1615;53.602;11.418;2023-03-20T04:18:15;101183.56;;;11.55;100.00
3206;BME280;1615;53.602;11.418;2023-03-20T04:20:41;101176.38;;;11.64;100.00
3206;BME280;1615;53.602;11.418;2023-03-20T04:23:07;101176.94;;;11.61;100.00
3206;BME280;1615;53.602;11.418;2023-03-20T04:25:33;101074.19;;;10.81;100.00
3206;BME280;1615;53.602;11.418;2023-03-20T04:27:58;101190.16;;;11.59;100.00
3206;BME280;1615;53.602;11.418;2023-03-20T04:30:26;101186.75;;;11.67;100.00
3206;BME280;1615;53.602;11.418;2023-03-20T04:32:51;101188.66;;;11.71;100.00
3206;BME280;1615;53.602;11.418;2023-03-20T04:35:17;101190.56;;;11.71;100.00
3206;BME280;1615;53.602;11.418;2023-03-20T04:37:42;101181.22;;;11.72;100.00
3206;BME280;1615;53.602;11.418;2023-03-20T04:40:08;101183.50;;;11.65;100.00
3206;BME280;1615;53.602;11.418;2023-03-20T04:42:34;101188.34;;;11.73;100.00
3206;BME280;1615;53.602;11.418;2023-03-20T04:44:59;101181.75;;;11.74;100.00
3206;BME280;1615;53.602;11.418;2023-03-20T04:47:24;101182.31;;;11.71;100.00
3206;BME280;1615;53.602;11.418;2023-03-20T04:49:50;101178.03;;;11.60;100.00
3206;BME280;1615;53.602;11.418;2023-03-20T04:52:15;101179.97;;;11.59;100.00
3206;BME280;1615;53.602;11.418;2023-03-20T04:54:40;101183.53;;;11.60;100.00
3206;BME280;1615;53.602;11.418;2023-03-20T04:57:05;101186.25;;;11.65;100.00
3206;BME280;1615;53.602;11.418;2023-03-20T04:59:31;101198.63;;;11.62;100.00
3206;BME280;1615;53.602;11.418;2023-03-20T05:01:56;101179.63;;;11.66;100.00
3206;BME280;1615;53.602;11.418;2023-03-20T05:04:22;101141.91;;;11.48;100.00
3206;BME280;1615;53.602;11.418;2023-03-20T05:06:47;101182.84;;;11.73;100.00
3206;BME280;1615;53.602;11.418;2023-03-20T05:09:14;101164.25;;;11.65;100.00
3206;BME280;1615;53.602;11.418;2023-03-20T05:11:40;101183.38;;;11.75;100.00
3206;BME280;1615;53.602;11.418;2023-03-20T05:14:05;101183.63;;;11.78;100.00
3206;BME280;1615;53.602;11.418;2023-03-20T05:16:31;101176.50;;;11.77;100.00
3206;BME280;1615;53.602;11.418;2023-03-20T05:18:56;101180.09;;;11.73;100.00
3206;BME280;1615;53.602;11.418;2023-03-20T05:21:22;101181.75;;;11.74;100.00
3206;BME280;1615;53.602;11.418;2023-03-20T05:23:47;101178.47;;;11.72;100.00
3206;BME280;1615;53.602;11.418;2023-03-20T05:26:12;101178.47;;;11.72;100.00
3206;BME280;1615;53.602;11.418;2023-03-20T05:28:38;101177.91;;;11.75;100.00
3206;BME280;1615;53.602;11.418;2023-03-20T05:31:03;101177.34;;;11.73;100.00
3206;BME280;1615;53.602;11.418;2023-03-20T05:33:28;101165.94;;;11.61;100.00
3206;BME280;1615;53.602;11.418;2023-03-20T05:35:54;101185.59;;;11.73;100.00
3206;BME280;1615;53.602;11.418;2023-03-20T05:38:19;101185.59;;;11.73;100.00
3206;BME280;1615;53.602;11.418;2023-03-20T05:40:48;101192.75;;;11.74;100.00
3206;BME280;1615;53.602;11.418;2023-03-20T05:43:13;101047.56;;;10.82;100.00
3206;BME280;1615;53.602;11.418;2023-03-20T05:45:38;101204.25;;;11.76;100.00
3206;BME280;1615;53.602;11.418;2023-03-20T05:48:04;101200.66;;;11.75;100.00
3206;BME280;1615;53.602;11.418;2023-03-20T05:50:29;101197.69;;;11.72;100.00
3206;BME280;1615;53.602;11.418;2023-03-20T05:52:54;101198.25;;;11.74;100.00
3206;BME280;1615;53.602;11.418;2023-03-20T05:55:20;101182.97;;;11.63;100.00
3206;BME280;1615;53.602;11.418;2023-03-20T05:57:45;101193.81;;;11.73;100.00
3206;BME280;1615;53.602;11.418;2023-03-20T06:00:11;101197.16;;;11.70;100.00
3206;BME280;1615;53.602;11.418;2023-03-20T06:02:36;101200.47;;;11.67;100.00
3206;BME280;1615;53.602;11.418;2023-03-20T06:05:02;101163.13;;;11.37;100.00
3206;BME280;1615;53.602;11.418;2023-03-20T06:07:27;101202.19;;;11.63;100.00
3206;BME280;1615;53.602;11.418;2023-03-20T06:09:53;101212.13;;;11.59;100.00
3206;BME280;1615;53.602;11.418;2023-03-20T06:12:18;101204.66;;;11.59;100.00
3206;BME280;1615;53.602;11.418;2023-03-20T06:14:43;101203.81;;;11.64;100.00
3206;BME280;1615;53.602;11.418;2023-03-20T06:17:09;101204.91;;;11.68;100.00
3206;BME280;1615;53.602;11.418;2023-03-20T06:19:35;101200.16;;;11.73;100.00
3206;BME280;1615;53.602;11.418;2023-03-20T06:22:01;101115.84;;;11.17;100.00
3206;BME280;1615;53.602;11.418;2023-03-20T06:24:26;101214.72;;;11.74;100.00
3206;BME280;1615;53.602;11.418;2023-03-20T06:26:52;101204.91;;;11.68;100.00
3206;BME280;1615;53.602;11.418;2023-03-20T06:29:17;101215.28;;;11.71;100.00
3206;BME280;1615;53.602;11.418;2023-03-20T06:31:43;101212.31;;;11.67;100.00
3206;BME280;1615;53.602;11.418;2023-03-20T06:34:08;101216.91;;;11.72;100.00
3206;BME280;1615;53.602;11.418;2023-03-20T06:36:35;101216.91;;;11.72;100.00
3206;BME280;1615;53.602;11.418;2023-03-20T06:39:01;101123.56;;;11.15;100.00
3206;BME280;1615;53.602;11.418;2023-03-20T06:41:27;101220.22;;;11.74;100.00
3206;BME280;1615;53.602;11.418;2023-03-20T06:43:52;101223.47;;;11.76;100.00
3206;BME280;1615;53.602;11.418;2023-03-20T06:46:18;101221.25;;;11.78;100.00
3206;BME280;1615;53.602;11.418;2023-03-20T06:48:43;101219.84;;;11.80;100.00
3206;BME280;1615;53.602;11.418;2023-03-20T06:51:08;101220.91;;;11.84;100.00
3206;BME280;1615;53.602;11.418;2023-03-20T06:53:33;101221.97;;;11.88;100.00
3206;BME280;1615;53.602;11.418;2023-03-20T06:56:02;101218.94;;;11.90;100.00
3206;BME280;1615;53.602;11.418;2023-03-20T06:58:27;101244.19;;;11.92;100.00
3206;BME280;1615;53.602;11.418;2023-03-20T07:00:52;101211.22;;;11.92;100.00
3206;BME280;1615;53.602;11.418;2023-03-20T07:03:21;101183.16;;;11.71;100.00
3206;BME280;1615;53.602;11.418;2023-03-20T07:05:47;101212.78;;;11.98;100.00
3206;BME280;1615;53.602;11.418;2023-03-20T07:08:12;101218.25;;;12.03;100.00
3206;BME280;1615;53.602;11.418;2023-03-20T07:10:39;101222.63;;;12.04;100.00
3206;BME280;1615;53.602;11.418;2023-03-20T07:13:04;101211.69;;;11.99;100.00
3206;BME280;1615;53.602;11.418;2023-03-20T07:15:29;101224.91;;;11.97;100.00
3206;BME280;1615;53.602;11.418;2023-03-20T07:17:55;101208.25;;;11.88;100.00
3206;BME280;1615;53.602;11.418;2023-03-20T07:20:21;101229.50;;;12.01;100.00
3206;BME280;1615;53.602;11.418;2023-03-20T07:22:47;101227.09;;;12.00;100.00
3206;BME280;1615;53.602;11.418;2023-03-20T07:25:13;101223.28;;;11.96;100.00
3206;BME280;1615;53.602;11.418;2023-03-20T07:27:39;101228.34;;;12.07;100.00
3206;BME280;1615;53.602;11.418;2023-03-20T07:30:05;101231.66;;;12.09;100.00
3206;BME280;1615;53.602;11.418;2023-03-20T07:32:31;101222.09;;;12.02;100.00
3206;BME280;1615;53.602;11.418;2023-03-20T07:34:57;101234.16;;;12.06;100.00
3206;BME280;1615;53.602;11.418;2023-03-20T07:37:22;101238.53;;;12.07;100.00
3206;BME280;1615;53.602;11.418;2023-03-20T07:39:48;101236.91;;;12.06;100.00
3206;BME280;1615;53.602;11.418;2023-03-20T07:42:13;101246.84;;;12.02;100.00
3206;BME280;1615;53.602;11.418;2023-03-20T07:44:39;101251.28;;;11.98;100.00
3206;BME280;1615;53.602;11.418;2023-03-20T07:47:04;101255.13;;;11.97;100.00
3206;BME280;1615;53.602;11.418;2023-03-20T07:49:30;101257.97;;;11.87;100.00
3206;BME280;1615;53.602;11.418;2023-03-20T07:51:55;101260.72;;;11.87;100.00
3206;BME280;1615;53.602;11.418;2023-03-20T07:54:21;101367.38;;;11.80;100.00
3206;BME280;1615;53.602;11.418;2023-03-20T07:56:46;101267.66;;;11.79;100.00
3206;BME280;1615;53.602;11.418;2023-03-20T07:59:12;101262.16;;;11.79;100.00
3206;BME280;1615;53.602;11.418;2023-03-20T08:01:38;101231.44;;;11.44;100.00
3206;BME280;1615;53.602;11.418;2023-03-20T08:04:03;101232.97;;;11.55;100.00
3206;BME280;1615;53.602;11.418;2023-03-20T08:06:29;101261.94;;;11.76;100.00
3206;BME280;1615;53.602;11.418;2023-03-20T08:08:54;101258.06;;;11.77;100.00
3206;BME280;1615;53.602;11.418;2023-03-20T08:11:20;101267.34;;;11.86;100.00
3206;BME280;1615;53.602;11.418;2023-03-20T08:13:45;101264.63;;;11.81;100.00
3206;BME280;1615;53.602;11.418;2023-03-20T08:16:11;101153.38;;;11.21;100.00
3206;BME280;1615;53.602;11.418;2023-03-20T08:18:36;101274.94;;;11.94;100.00
3206;BME280;1615;53.602;11.418;2023-03-20T08:21:02;101278.78;;;11.93;100.00
3206;BME280;1615;53.602;11.418;2023-03-20T08:23:27;101280.94;;;12.01;100.00
3206;BME280;1615;53.602;11.418;2023-03-20T08:25:53;101283.31;;;12.07;100.00
3206;BME280;1615;53.602;11.418;2023-03-20T08:28:19;101271.53;;;12.07;100.00
3206;BME280;1615;53.602;11.418;2023-03-20T08:30:44;101269.34;;;12.04;100.00
3206;BME280;1615;53.602;11.418;2023-03-20T08:33:10;101277.88;;;12.02;100.00
3206;BME280;1615;53.602;11.418;2023-03-20T08:35:36;101124.75;;;11.04;100.00
3206;BME280;1615;53.602;11.418;2023-03-20T08:38:02;101279.28;;;12.00;100.00
3206;BME280;1615;53.602;11.418;2023-03-20T08:40:27;101259.09;;;11.86;100.00
3206;BME280;1615;53.602;11.418;2023-03-20T08:42:53;101278.75;;;11.98;100.00
3206;BME280;1615;53.602;11.418;2023-03-20T08:45:18;101120.66;;;11.01;100.00
3206;BME280;1615;53.602;11.418;2023-03-20T08:47:46;101287.53;;;12.00;100.00
3206;BME280;1615;53.602;11.418;2023-03-20T08:50:13;101263.03;;;12.03;100.00
3206;BME280;1615;53.602;11.418;2023-03-20T08:52:39;101187.34;;;11.64;100.00
3206;BME280;1615;53.602;11.418;2023-03-20T08:55:10;101284.00;;;12.23;100.00
3206;BME280;1615;53.602;11.418;2023-03-20T08:57:36;101221.63;;;11.95;100.00
3206;BME280;1615;53.602;11.418;2023-03-20T09:00:03;101257.31;;;12.23;100.00
3206;BME280;1615;53.602;11.418;2023-03-20T09:02:30;101286.56;;;12.38;100.00
3206;BME280;1615;53.602;11.418;2023-03-20T09:04:55;101263.63;;;12.24;100.00
3206;BME280;1615;53.602;11.418;2023-03-20T09:07:20;101288.84;;;12.31;100.00
3206;BME280;1615;53.602;11.418;2023-03-20T09:09:46;101284.84;;;12.42;100.00
3206;BME280;1615;53.602;11.418;2023-03-20T09:12:11;101299.72;;;12.41;100.00
3206;BME280;1615;53.602;11.418;2023-03-20T09:14:37;101286.09;;;12.54;100.00
3206;BME280;1615;53.602;11.418;2023-03-20T09:17:02;101290.78;;;12.54;100.00
3206;BME280;1615;53.602;11.418;2023-03-20T09:19:28;101279.19;;;12.57;100.00
3206;BME280;1615;53.602;11.418;2023-03-20T09:21:53;101256.91;;;12.35;100.00
3206;BME280;1615;53.602;11.418;2023-03-20T09:24:18;101284.09;;;12.60;100.00
3206;BME280;1615;53.602;11.418;2023-03-20T09:26:44;101293.47;;;12.59;100.00
3206;BME280;1615;53.602;11.418;2023-03-20T09:29:09;101240.19;;;12.31;100.00
3206;BME280;1615;53.602;11.418;2023-03-20T09:31:35;101287.91;;;12.64;100.00
3206;BME280;1615;53.602;11.418;2023-03-20T09:34:00;101294.63;;;12.53;100.00
3206;BME280;1615;53.602;11.418;2023-03-20T09:36:25;101278.91;;;12.35;100.00
3206;BME280;1615;53.602;11.418;2023-03-20T09:38:51;101277.59;;;12.27;100.00
3206;BME280;1615;53.602;11.418;2023-03-20T09:41:19;101292.66;;;12.35;100.00
3206;BME280;1615;53.602;11.418;2023-03-20T09:49:03;101294.63;;;12.53;100.00
3206;BME280;1615;53.602;11.418;2023-03-20T09:56:49;101301.78;;;12.77;100.00
3206;BME280;1615;53.602;11.418;2023-03-20T09:59:15;101274.03;;;12.50;100.00
3206;BME280;1615;53.602;11.418;2023-03-20T10:01:48;101312.66;;;12.64;100.00
3206;BME280;1615;53.602;11.418;2023-03-20T10:04:14;101317.56;;;12.67;100.00
3206;BME280;1615;53.602;11.418;2023-03-20T10:06:40;101309.38;;;12.62;100.00
3206;BME280;1615;53.602;11.418;2023-03-20T10:09:20;101316.69;;;12.71;100.00
3206;BME280;1615;53.602;11.418;2023-03-20T10:11:52;101319.00;;;12.83;100.00
3206;BME280;1615;53.602;11.418;2023-03-20T10:14:25;101318.66;;;12.89;100.00
3206;BME280;1615;53.602;11.418;2023-03-20T10:17:07;101291.44;;;12.88;100.00
3206;BME280;1615;53.602;11.418;2023-03-20T10:22:46;101299.41;;;12.89;100.00
3206;BME280;1615;53.602;11.418;2023-03-20T10:25:23;101299.97;;;12.86;100.00
3206;BME280;1615;53.602;11.418;2023-03-20T10:28:08;101306.66;;;12.80;100.00
3206;BME280;1615;53.602;11.418;2023-03-20T10:33:53;101304.41;;;12.64;100.00
3206;BME280;1615;53.602;11.418;2023-03-20T10:36:38;101235.56;;;12.27;100.00
3206;BME280;1615;53.602;11.418;2023-03-20T10:42:08;101182.91;;;11.91;100.00
3206;BME280;1615;53.602;11.418;2023-03-20T10:44:42;101294.38;;;12.73;100.00
3206;BME280;1615;53.602;11.418;2023-03-20T10:47:15;101296.56;;;12.76;100.00
3206;BME280;1615;53.602;11.418;2023-03-20T10:49:48;101293.03;;;12.70;100.00
3206;BME280;1615;53.602;11.418;2023-03-20T10:52:20;101196.81;;;12.23;100.00
3206;BME280;1615;53.602;11.418;2023-03-20T10:54:51;101289.81;;;12.87;100.00
3206;BME280;1615;53.602;11.418;2023-03-20T10:57:23;101269.94;;;12.90;100.00
3206;BME280;1615;53.602;11.418;2023-03-20T10:59:50;101280.88;;;12.95;100.00
3206;BME280;1615;53.602;11.418;2023-03-20T11:02:18;101230.16;;;12.64;100.00
3206;BME280;1615;53.602;11.418;2023-03-20T11:04:44;101220.91;;;12.55;100.00
3206;BME280;1615;53.602;11.418;2023-03-20T11:07:21;101220.59;;;12.38;100.00
3206;BME280;1615;53.602;11.418;2023-03-20T11:12:31;101294.59;;;12.76;100.00
3206;BME280;1615;53.602;11.418;2023-03-20T11:14:59;101291.63;;;12.73;100.00
3206;BME280;1615;53.602;11.418;2023-03-20T11:17:29;101205.50;;;12.12;100.00
3206;BME280;1615;53.602;11.418;2023-03-20T11:20:02;101298.38;;;12.62;100.00
3206;BME280;1615;53.602;11.418;2023-03-20T11:22:29;101305.00;;;12.61;100.00
3206;BME280;1615;53.602;11.418;2023-03-20T11:25:00;101259.06;;;12.61;100.00
3206;BME280;1615;53.602;11.418;2023-03-20T11:27:28;101142.69;;;12.24;100.00
3206;BME280;1615;53.602;11.418;2023-03-20T11:29:56;101145.66;;;12.46;100.00
3206;BME280;1615;53.602;11.418;2023-03-20T11:35:17;101266.63;;;13.30;100.00
3206;BME280;1615;53.602;11.418;2023-03-20T11:37:45;101251.03;;;13.07;100.00
3206;BME280;1615;53.602;11.418;2023-03-20T11:42:36;101275.13;;;13.15;100.00
3206;BME280;1615;53.602;11.418;2023-03-20T11:45:14;101265.50;;;13.12;100.00
3206;BME280;1615;53.602;11.418;2023-03-20T11:47:41;101276.16;;;13.19;100.00
3206;BME280;1615;53.602;11.418;2023-03-20T11:50:24;101235.03;;;13.09;100.00
3206;BME280;1615;53.602;11.418;2023-03-20T11:52:50;101263.84;;;13.48;100.00
3206;BME280;1615;53.602;11.418;2023-03-20T11:55:26;101266.56;;;13.67;100.00
3206;BME280;1615;53.602;11.418;2023-03-20T11:57:56;101191.06;;;13.36;100.00
3206;BME280;1615;53.602;11.418;2023-03-20T12:00:25;101233.34;;;13.77;100.00
3206;BME280;1615;53.602;11.418;2023-03-20T12:02:52;101196.50;;;13.41;100.00
3206;BME280;1615;53.602;11.418;2023-03-20T12:05:32;101238.59;;;13.60;100.00
3206;BME280;1615;53.602;11.418;2023-03-20T12:08:04;101244.78;;;13.52;100.00
3206;BME280;1615;53.602;11.418;2023-03-20T12:10:35;101132.59;;;12.75;100.00
3206;BME280;1615;53.602;11.418;2023-03-20T12:13:12;101244.03;;;13.46;100.00
3206;BME280;1615;53.602;11.418;2023-03-20T12:15:43;101224.19;;;13.31;100.00
3206;BME280;1615;53.602;11.418;2023-03-20T12:18:24;101240.06;;;13.39;100.00
3206;BME280;1615;53.602;11.418;2023-03-20T12:21:11;101145.22;;;12.76;100.00
3206;BME280;1615;53.602;11.418;2023-03-20T12:23:43;101117.66;;;12.62;100.00
3206;BME280;1615;53.602;11.418;2023-03-20T12:26:14;101225.47;;;13.38;100.00
3206;BME280;1615;53.602;11.418;2023-03-20T12:31:42;101243.78;;;13.11;100.00
3206;BME280;1615;53.602;11.418;2023-03-20T12:34:23;101248.94;;;12.99;100.00
3206;BME280;1615;53.602;11.418;2023-03-20T12:36:53;101244.72;;;12.83;100.00
3206;BME280;1615;53.602;11.418;2023-03-20T12:39:24;101240.91;;;12.60;100.00
3206;BME280;1615;53.602;11.418;2023-03-20T12:44:38;101234.38;;;12.56;100.00
3206;BME280;1615;53.602;11.418;2023-03-20T12:50:35;101236.66;;;12.68;100.00
3206;BME280;1615;53.602;11.418;2023-03-20T12:56:22;101235.81;;;12.72;100.00
3206;BME280;1615;53.602;11.418;2023-03-20T12:59:14;101224.13;;;12.80;100.00
3206;BME280;1615;53.602;11.418;2023-03-20T13:01:49;101091.00;;;12.02;100.00
3206;BME280;1615;53.602;11.418;2023-03-20T13:07:06;101216.94;;;13.03;100.00
3206;BME280;1615;53.602;11.418;2023-03-20T13:09:56;101217.59;;;13.13;100.00
3206;BME280;1615;53.602;11.418;2023-03-20T13:37:30;101199.38;;;12.99;100.00
3206;BME280;1615;53.602;11.418;2023-03-20T13:43:01;101177.41;;;12.75;100.00
3206;BME280;1615;53.602;11.418;2023-03-20T13:45:41;101197.69;;;13.03;100.00
3206;BME280;1615;53.602;11.418;2023-03-20T13:51:35;101191.06;;;13.04;100.00
3206;BME280;1615;53.602;11.418;2023-03-20T14:00:36;101119.88;;;12.60;100.00
3206;BME280;1615;53.602;11.418;2023-03-20T14:03:42;101200.66;;;13.06;100.00
3206;BME280;1615;53.602;11.418;2023-03-20T14:06:42;101194.59;;;12.86;100.00
3206;BME280;1615;53.602;11.418;2023-03-20T14:09:34;101205.09;;;12.84;100.00
3206;BME280;1615;53.602;11.418;2023-03-20T14:12:06;101198.56;;;12.80;100.00
3206;BME280;1615;53.602;11.418;2023-03-20T14:17:25;101200.41;;;12.66;100.00
3206;BME280;1615;53.602;11.418;2023-03-20T14:19:52;101196.97;;;12.74;100.00
3206;BME280;1615;53.602;11.418;2023-03-20T14:22:19;101193.56;;;12.82;100.00
3206;BME280;1615;53.602;11.418;2023-03-20T14:25:06;101196.25;;;12.87;100.00
3206;BME280;1615;53.602;11.418;2023-03-20T14:27:53;101200.00;;;12.96;100.00
3206;BME280;1615;53.602;11.418;2023-03-20T14:35:29;101181.28;;;12.93;100.00
3206;BME280;1615;53.602;11.418;2023-03-20T14:40:55;101181.94;;;12.85;100.00
3206;BME280;1615;53.602;11.418;2023-03-20T14:46:16;101175.59;;;13.08;100.00
3206;BME280;1615;53.602;11.418;2023-03-20T14:48:47;101177.41;;;13.12;100.00
3206;BME280;1615;53.602;11.418;2023-03-20T14:51:30;101174.22;;;13.24;100.00
3206;BME280;1615;53.602;11.418;2023-03-20T14:56:45;101152.94;;;13.11;100.00
3206;BME280;1615;53.602;11.418;2023-03-20T14:59:12;101176.72;;;13.39;100.00